Station: Hopetoun Airport  

  Atmospheric Gas Attenuation - ITU Rec 676-11   ----------------- dB/100km -----------------
Date Time Temp RH % AH g/m3 Dew Point Wind Direction Speed kph Gust kph Barometer mB Rainfall Since 9am 24GHz 47GHz 76GHz 122GHz 134GHz 241GHz
08/05 12:30 16.1 68 9.32 10.2 26 35 1026.9 0 21.0 26.9 42.1 110.5 106.0 365.4
08/05 12:20 16 68 9.26 10.1 28 32 1026.8 0 20.9 26.8 41.9 110.0 105.4 363.1
08/05 12:10 16.2 65 8.96 9.6 30 33 1026.9 0 20.2 26.3 40.6 106.5 101.2 348.4
08/05 12:00 16.2 71 9.79 10.9 22 32 1027 0 22.0 27.6 44.0 115.5 112.2 386.9
08/05 11:50 15.2 70 9.09 9.9 28 30 1027.1 0 20.5 26.8 41.7 109.3 104.2 358.9
08/05 11:40 15.5 70 9.25 10 30 33 1027.2 0 20.9 27.0 42.2 110.6 106.0 365.0
08/05 11:30 15.3 70 9.14 9.9 35 46 1027.3 0 20.6 26.9 41.8 109.7 104.8 360.9
08/05 11:20 15.9 71 9.61 10.6 33 39 1027.4 0 21.6 27.4 43.4 114.0 110.2 380.0
08/05 11:10 15.4 81 10.64 12.1 22 24 1027.6 0 23.8 29.3 48.0 126.2 125.1 432.1
08/05 11:00 13.6 90 10.59 12 30 43 1027.9 0 23.8 29.9 48.9 128.6 127.4 439.9
08/05 10:50 14.1 81 9.83 10.9 37 43 1027.8 0 22.2 28.4 45.4 119.1 115.9 399.6
08/05 10:40 14.5 79 9.83 10.9 24 30 1027.7 0 22.2 28.3 45.1 118.5 115.3 397.6
08/05 10:30 14.3 88 10.81 12.3 26 43 1027.7 0 24.3 30.0 49.5 130.0 129.4 446.8
08/05 10:20 12.9 100 11.27 12.9 20 24 1027.7 0 25.3 31.3 52.4 137.9 138.6 478.6
08/05 10:10 13.4 98 11.39 13.1 22 26 1027.8 0 25.6 31.4 52.6 138.4 139.4 481.7
08/05 10:00 13.2 94 10.79 12.3 28 43 1027.8 0 24.3 30.4 50.1 131.7 131.0 452.2
08/05 09:50 13.4 92 10.7 12.1 28 33 1027.8 0 24.1 30.1 49.6 130.3 129.4 446.5
08/05 09:40 13.2 95 10.91 12.5 24 28 1027.8 0 24.5 30.6 50.6 133.1 132.7 458.3
08/05 09:30 12.9 99 11.16 12.7 26 33 1027.7 0 25.1 31.1 51.9 136.6 136.9 472.9
08/05 09:20 12.6 100 11.06 12.6 30 33 1027.5 0 24.9 31.1 51.7 135.9 136.0 469.5
08/05 09:10 12.8 98 10.98 12.5 28 32 1027.4 0 24.7 30.8 51.2 134.6 134.4 464.2
08/05 09:00 12.7 96 10.69 12.1 24 35 1027.3 0 24.1 30.3 49.9 131.3 130.4 449.9
08/05 08:50 12.8 95 10.64 12.1 26 30 1027.2 0 24.0 30.2 49.6 130.5 129.4 446.7
08/05 08:40 12.8 98 10.98 12.5 22 26 1027.3 0 24.7 30.8 51.2 134.5 134.4 464.1
08/05 08:30 12.5 100 11 12.5 22 30 1027.2 0 24.8 31.0 51.4 135.3 135.2 467.0
08/05 08:20 11.9 100 10.59 11.9 22 26 1027.2 0 23.9 30.4 50.0 131.4 130.3 449.4
08/05 08:10 11.5 100 10.33 11.5 22 26 1027.1 0 23.4 30.1 49.1 129.0 127.1 438.4
08/05 08:00 10.9 100 9.95 10.9 11 15 1027 0 22.6 29.6 47.8 125.5 122.5 422.3
08/05 07:50 10.3 100 9.58 10.3 11 13 1026.9 0 21.9 29.2 46.5 122.1 118.1 406.8
08/05 07:40 10.3 100 9.58 10.3 13 15 1026.7 0 21.9 29.2 46.5 122.0 118.1 406.7
08/05 07:30 10.3 100 9.58 10.3 11 15 1026.6 0 21.9 29.2 46.5 122.0 118.1 406.7
08/05 07:20 10.3 100 9.58 10.3 13 13 1026.6 0 21.9 29.2 46.5 122.0 118.1 406.7
08/05 07:10 10.2 100 9.52 10.2 15 19 1026.5 0 21.7 29.1 46.3 121.5 117.3 404.1
08/05 07:00 10.1 100 9.46 10.1 15 20 1026.5 0 21.6 29.0 46.1 120.9 116.6 401.6
08/05 06:50 9.9 100 9.34 9.9 15 17 1026.5 0 21.4 28.9 45.6 119.8 115.2 396.6
08/05 06:40 9.8 100 9.28 9.8 15 17 1026.4 0 21.2 28.8 45.4 119.3 114.5 394.0
08/05 06:30 9.8 100 9.28 9.8 19 26 1026.4 0 21.2 28.8 45.4 119.3 114.5 394.0
08/05 06:20 9.6 100 9.16 9.6 19 20 1026.3 0 21.0 28.6 45.0 118.1 113.0 388.9
08/05 06:10 9.2 100 8.93 9.2 19 20 1026.2 0 20.5 28.4 44.2 116.0 110.3 379.3
08/05 06:00 9.3 100 8.99 9.3 20 26 1026 0 20.6 28.4 44.4 116.6 111.0 381.8
08/05 05:50 9.1 100 8.88 9.1 24 28 1025.8 0 20.4 28.3 44.1 115.6 109.7 377.2
08/05 05:40 8.7 100 8.65 8.7 20 22 1025.7 0 19.9 28.0 43.3 113.5 106.9 367.5
08/05 05:30 8.6 100 8.6 8.6 20 24 1025.4 0 19.8 27.9 43.1 113.0 106.3 365.4
08/05 05:20 8.6 100 8.6 8.6 20 24 1025.5 0 19.8 28.0 43.1 113.0 106.4 365.5
08/05 05:10 8.8 100 8.71 8.8 17 20 1025.5 0 20.1 28.1 43.5 114.0 107.6 370.0
08/05 05:00 9.1 100 8.88 9.1 17 20 1025.4 0 20.4 28.3 44.0 115.5 109.7 377.1
08/05 04:50 9.3 99 8.9 9.1 17 19 1025.4 0 20.4 28.2 44.0 115.5 109.7 377.1
08/05 04:40 9.5 99 9.01 9.3 19 20 1025.4 0 20.7 28.4 44.4 116.4 110.9 381.6
08/05 04:30 9.5 99 9.01 9.4 19 24 1025.4 0 20.7 28.4 44.4 116.4 110.9 381.6
08/05 04:20 9.6 100 9.16 9.6 20 22 1025.4 0 21.0 28.6 45.0 118.0 112.9 388.7
08/05 04:10 9.4 100 9.05 9.4 20 24 1025.4 0 20.8 28.5 44.6 117.1 111.7 384.1
08/05 04:00 9.2 99 8.84 9.1 22 30 1025.4 0 20.3 28.2 43.8 114.9 108.9 374.6
08/05 03:50 9.1 99 8.79 8.9 24 28 1025.3 0 20.2 28.1 43.6 114.5 108.4 372.5
08/05 03:40 9.1 99 8.79 8.9 24 30 1025.2 0 20.2 28.1 43.6 114.5 108.3 372.5
08/05 03:30 9 99 8.73 8.9 24 32 1025.3 0 20.1 28.0 43.4 113.9 107.6 370.0
08/05 03:20 8.8 99 8.62 8.6 26 30 1025.3 0 19.9 27.9 43.1 112.9 106.3 365.4
08/05 03:10 8.9 99 8.68 8.7 26 30 1025.5 0 20.0 28.0 43.3 113.5 107.1 368.0
08/05 03:00 9 99 8.73 8.9 20 26 1025.9 0 20.1 28.1 43.5 114.0 107.7 370.2
08/05 02:50 9 99 8.73 8.8 19 22 1026.2 0 20.1 28.1 43.5 114.0 107.7 370.3
08/05 02:40 8.7 99 8.56 8.5 17 19 1026.4 0 19.7 27.9 42.9 112.5 105.7 363.2
08/05 02:30 8.5 99 8.46 8.4 13 17 1026.5 0 19.5 27.8 42.6 111.6 104.6 359.2
08/05 02:20 8.7 99 8.56 8.5 13 13 1026.6 0 19.7 27.9 42.9 112.5 105.7 363.3
08/05 02:10 8.3 97 8.18 7.8 13 17 1026.5 0 18.9 27.4 41.5 108.7 100.9 346.2
08/05 02:00 8.5 95 8.11 7.7 17 19 1026.3 0 18.8 27.2 41.1 107.6 99.6 341.8
08/05 01:50 8.9 93 8.15 7.9 17 19 1026.4 0 18.8 27.1 41.0 107.5 99.6 342.0
08/05 01:40 9 93 8.2 8 15 17 1026.6 0 19.0 27.2 41.2 108.0 100.2 344.1
08/05 01:30 9 92 8.11 7.8 13 15 1026.6 0 18.8 27.0 40.8 106.9 99.0 339.7
08/05 01:20 9.3 92 8.27 8 13 13 1026.6 0 19.1 27.2 41.4 108.3 100.8 346.2
08/05 01:10 9.3 91 8.18 7.9 13 15 1026.6 0 18.9 27.1 41.0 107.3 99.6 341.8
08/05 01:00 9.5 91 8.29 8.1 13 17 1026.7 0 19.1 27.2 41.3 108.3 100.8 346.3
08/05 00:50 9.6 91 8.34 8.2 13 15 1026.7 0 19.2 27.2 41.5 108.7 101.4 348.3
08/05 00:40 9.5 91 8.29 8.1 13 15 1026.7 0 19.1 27.2 41.3 108.3 100.8 346.3
08/05 00:30 9.3 91 8.18 7.9 15 19 1026.6 0 18.9 27.1 41.0 107.3 99.6 341.8
08/05 00:20 9.1 93 8.25 8 13 15 1026.6 0 19.1 27.2 41.4 108.4 100.8 346.1
08/05 00:10 8.6 91 7.82 7.3 13 15 1026.8 0 18.2 26.7 39.8 104.2 95.4 327.3
08/05 00:00 8.4 91 7.72 7 13 15 1026.8 0 17.9 26.5 39.5 103.4 94.3 323.3
07/05 23:50 8.6 89 7.65 6.9 13 13 1026.9 0 17.8 26.4 39.1 102.3 93.1 319.1
07/05 23:40 8.8 87 7.58 6.7 11 15 1027 0 17.6 26.2 38.7 101.3 91.9 314.9
07/05 23:30 9.2 86 7.68 7 13 17 1027.1 0 17.8 26.3 38.9 101.9 92.8 318.1
07/05 23:20 9.3 85 7.64 7 11 13 1027.1 0 17.7 26.2 38.7 101.3 92.1 315.8
07/05 23:10 9.3 87 7.82 7.2 13 15 1027.2 0 18.1 26.5 39.5 103.3 94.6 324.5
07/05 23:00 8.7 88 7.61 6.8 7 11 1027.4 0 17.7 26.3 38.9 101.8 92.5 316.8
07/05 22:50 8 86 7.11 5.9 7 9 1027.4 0 16.7 25.7 37.2 97.1 86.4 295.6
07/05 22:40 7.8 85 6.94 5.4 9 9 1027.6 0 16.3 25.4 36.6 95.5 84.3 288.2
07/05 22:30 8.2 84 7.04 5.7 9 11 1027.5 0 16.5 25.5 36.8 96.1 85.3 291.5
07/05 22:20 8.5 82 7 5.7 9 11 1027.5 0 16.4 25.3 36.5 95.3 84.4 288.5
07/05 22:10 8.3 82 6.91 5.5 13 13 1027.6 0 16.2 25.3 36.2 94.6 83.4 285.0
07/05 22:00 8.4 81 6.87 5.3 13 15 1027.4 0 16.1 25.2 36.0 94.0 82.7 282.7
07/05 21:50 8.6 80 6.88 5.3 13 15 1027.3 0 16.1 25.1 35.9 93.9 82.6 282.4
07/05 21:40 8.8 77 6.7 5.1 13 13 1027.1 0 15.7 24.8 35.1 91.7 80.0 273.2
07/05 21:30 9 78 6.88 5.4 13 17 1027.2 0 16.1 25.0 35.8 93.4 82.2 281.0
07/05 21:20 9 77 6.79 5.2 13 15 1027.2 0 15.9 24.8 35.4 92.4 81.0 276.8
07/05 21:10 9.4 75 6.79 5.2 13 13 1027.2 0 15.9 24.7 35.2 91.9 80.6 275.4
07/05 21:00 9.8 74 6.87 5.4 15 17 1027.3 0 16.1 24.8 35.4 92.3 81.2 277.7
07/05 20:50 9.6 73 6.69 5 13 15 1027.2 0 15.7 24.5 34.7 90.6 79.1 270.1
07/05 20:40 9.9 72 6.72 5.1 15 17 1027.2 0 15.7 24.5 34.7 90.6 79.2 270.4
07/05 20:30 10.1 72 6.81 5.3 13 17 1027.4 0 15.9 24.6 35.0 91.4 80.2 273.9
07/05 20:20 10.1 71 6.72 5.2 15 17 1027.3 0 15.7 24.4 34.6 90.4 79.0 269.7
07/05 20:10 10.1 70 6.62 5 15 15 1027.2 0 15.5 24.3 34.2 89.3 77.7 265.2
07/05 20:00 10.2 70 6.66 5 13 15 1027.1 0 15.6 24.3 34.3 89.6 78.1 266.6

Last Refresh: 08-May-2026 12:08:02

Bureau of Meteorology